• Join FlightAware (Why Join?)
  • Login
  • US Flag 
02:41AM EST


 

Airport Tracker/Info


-or-


 

Live Flight TrackerFlight Track Log ✈ AFL150 ✈ 21-Jan-2014 ✈ UUEE / SVO - MUHA / HAV

Flight Track Log - Related Links

Times and Time Zones

All times are in EST time to prevent confusion due to time zone crossing. See the AFL150 flight status page for this flight to view local times or setup timezone preferences in your user account.

Time Position Orientation Groundspeed Altitude Reporting Facility
EST Latitude Longitude Course Direction KTS MPH feet Rate Location/Type
04:40AM 56.1136 37.0878 317° Northwest  Level FlightAware Approximate
04:41AM 56.2002 36.9428 317° Northwest  Level FlightAware Approximate
04:42AM 56.2866 36.7971 317° Northwest  Level FlightAware Approximate
04:43AM 56.3729 36.6507 317° Northwest  Level FlightAware Approximate
04:44AM 56.4590 36.5037 317° Northwest  Level FlightAware Approximate
04:45AM 56.5449 36.3560 317° Northwest  Level FlightAware Approximate
04:46AM 56.6306 36.2077 316° Northwest  Level FlightAware Approximate
04:47AM 56.7162 36.0586 316° Northwest  Level FlightAware Approximate
04:48AM 56.8016 35.9089 316° Northwest  Level FlightAware Approximate
04:49AM 56.8868 35.7585 316° Northwest  Level FlightAware Approximate
04:50AM 56.9718 35.6074 316° Northwest  Level FlightAware Approximate
04:51AM 57.0566 35.4557 316° Northwest  Level FlightAware Approximate
04:52AM 57.1413 35.3032 316° Northwest  Level FlightAware Approximate
04:53AM 57.2258 35.1500 316° Northwest  Level FlightAware Approximate
04:54AM 57.3100 34.9962 315° West  Level FlightAware Approximate
04:55AM 57.3941 34.8416 315° West  Level FlightAware Approximate
04:56AM 57.4613 34.6604 312° West  Level Estimated
04:57AM 57.5409 34.4971 312° West  Level FlightAware Approximate
04:58AM 57.6202 34.3330 312° West  Level FlightAware Approximate
04:59AM 57.6992 34.1683 312° West  Level FlightAware Approximate
05:00AM 57.7781 34.0028 312° West  Level FlightAware Approximate
05:01AM 57.8568 33.8366 312° West  Level FlightAware Approximate
05:02AM 57.9352 33.6696 312° West  Level FlightAware Approximate
05:03AM 58.0135 33.5020 311° West  Level FlightAware Approximate
05:04AM 58.0915 33.3336 311° West  Level FlightAware Approximate
05:05AM 58.1693 33.1644 311° West  Level FlightAware Approximate
05:05AM 56.3849 33.0909 311° West 436 502 34,000  Level FlightAware ADS-B (EVDA / DGP)
05:10AM 56.5549 31.1765 303° West 434 499 34,000  Level FlightAware ADS-B (EVDA / DGP)
05:11AM 56.6025 30.9852 294° West 436 502 34,000  Level FlightAware ADS-B (EVDA / DGP)
05:12AM 56.6747 30.8088 307° West 438 504 34,000  Level FlightAware ADS-B (EVDA / DGP)
05:13AM 56.7492 30.6332 308° West 436 502 34,000  Level FlightAware ADS-B (EVDA / DGP)
05:14AM 56.8196 30.4472 305° West 437 503 34,000  Level FlightAware ADS-B (EVDA / DGP)
05:15AM 56.8866 30.2658 304° West 439 505 34,000  Level FlightAware ADS-B (EVDA / DGP)
05:16AM 56.9525 30.0861 304° West 439 505 34,000  Level FlightAware ADS-B (EVDA / DGP)
05:17AM 57.0223 29.8948 304° West 438 504 34,000  Level FlightAware ADS-B (EVDA / DGP)
05:18AM 57.0897 29.7077 304° West 440 506 34,000  Level FlightAware ADS-B (EVDA / DGP)
05:19AM 57.1560 29.5223 303° West 439 505 34,000  Level FlightAware ADS-B (EVDA / DGP)
05:20AM 57.2216 29.3372 303° West 440 506 34,000  Level FlightAware ADS-B (EVDA / DGP)
05:21AM 57.2887 29.1475 303° West 439 505 34,000  Level FlightAware ADS-B (EVDA / DGP)
05:22AM 57.3542 28.9606 303° West 439 505 34,000  Level FlightAware ADS-B (EVDA / DGP)
05:23AM 57.4209 28.7689 303° West 439 505 34,000  Level FlightAware ADS-B (EVDA / DGP)
05:24AM 57.4846 28.5838 303° West 439 505 34,000  Level FlightAware ADS-B (EVDA / DGP)
05:25AM 57.5518 28.3873 303° West 437 503 34,000  Level FlightAware ADS-B (EVDA / DGP)
05:26AM 57.6164 28.1969 302° West 436 502 34,000  Level FlightAware ADS-B (EVDA / DGP)
05:27AM 57.6788 28.0117 302° West 438 504 34,000  Level FlightAware ADS-B (EVDA / DGP)
05:28AM 57.7412 27.8253 302° West 438 504 34,000  Level FlightAware ADS-B (EVDA / DGP)
05:29AM 57.8068 27.6273 302° West 438 504 34,000  Level FlightAware ADS-B (EVDA / DGP)
05:30AM 57.8514 27.4159 292° West 440 506 34,000  Level FlightAware ADS-B (EVDA / DGP)
05:31AM 57.8940 27.1958 290° West 443 510 34,000  Level FlightAware ADS-B (EVDA / DGP)
05:32AM 57.9356 26.9777 290° West 445 512 34,000  Level FlightAware ADS-B (EVDA / DGP)
05:33AM 57.9765 26.7596 290° West 447 514 34,000  Level FlightAware ADS-B (EVDA / DGP)
05:34AM 58.0161 26.5472 289° West 446 513 34,000  Level FlightAware ADS-B (EVDA / DGP)
05:35AM 58.0580 26.3178 289° West 447 514 34,000  Level FlightAware ADS-B (EVDA / DGP)
05:36AM 58.0967 26.1051 289° West 447 514 34,000  Level FlightAware ADS-B (EVDA / DGP)
05:37AM 58.1360 25.8860 289° West 445 512 34,000  Level FlightAware ADS-B (EVDA / DGP)
05:38AM 58.1763 25.6587 289° West 442 509 34,000  Level FlightAware ADS-B (EVDA / DGP)
05:39AM 58.2153 25.4374 289° West 440 506 34,000  Level FlightAware ADS-B (EVDA / DGP)
05:40AM 58.2530 25.2188 288° West 441 507 34,000  Level FlightAware ADS-B (EVDA / DGP)
05:41AM 58.2882 25.0132 288° West 442 509 34,000  Level FlightAware ADS-B (EVDA / DGP)
05:41AM 58.3250 24.7953 288° West 443 510 34,000  Level FlightAware ADS-B (EVDA / DGP)
05:43AM 58.3830 24.4477 296° West 442 509 34,000  Level FlightAware ADS-B (EVDA / DGP)
05:58AM 58.8974 21.0332 294° West 450 518 34,000  Level FlightAware ADS-B
06:00AM 58.9533 20.7049 288° West 449 517 34,000  Level FlightAware ADS-B
06:00AM 58.9755 20.5695 288° West 449 517 34,000  Level FlightAware ADS-B
06:01AM 59.0034 20.3968 288° West 448 516 34,000  Level FlightAware ADS-B
06:02AM 59.0284 20.2420 287° West 447 514 34,000  Level FlightAware ADS-B
06:02AM 59.0529 20.0885 287° West 449 517 34,000  Level FlightAware ADS-B
06:03AM 59.0766 19.9384 287° West 450 518 34,000  Level FlightAware ADS-B
06:04AM 59.1012 19.7815 287° West 449 517 34,000  Level FlightAware ADS-B
06:04AM 59.1253 19.6268 287° West 449 517 34,000  Level FlightAware ADS-B
06:05AM 59.1481 19.4789 287° West 447 514 34,000  Level FlightAware ADS-B
06:06AM 59.1723 19.3198 287° West 446 513 34,000  Level FlightAware ADS-B
06:06AM 59.1952 19.1689 287° West 446 513 34,000  Level FlightAware ADS-B
06:07AM 59.2187 19.0113 286° West 446 513 34,000  Level FlightAware ADS-B
06:08AM 59.2415 18.8575 286° West 447 514 34,000  Level FlightAware ADS-B
06:08AM 59.2644 18.7014 286° West 448 516 34,000  Level FlightAware ADS-B
06:09AM 59.2864 18.5508 286° West 447 514 34,000  Level FlightAware ADS-B
06:10AM 59.3080 18.4007 286° West 445 512 34,000  Level FlightAware ADS-B
06:10AM 59.3297 18.2492 286° West 444 511 34,000  Level FlightAware ADS-B
06:11AM 59.3518 18.0931 286° West 442 509 34,000  Level FlightAware ADS-B
06:12AM 59.3743 17.9329 285° West 442 509 34,000  Level FlightAware ADS-B
06:12AM 59.3954 17.7806 285° West 442 509 34,000  Level FlightAware ADS-B
06:13AM 59.4168 17.6255 285° West 440 506 34,000  Level FlightAware ADS-B
06:14AM 59.4382 17.4669 285° West 437 503 34,000  Level FlightAware ADS-B
06:14AM 59.4573 17.3254 285° West 435 501 34,000  Level FlightAware ADS-B
06:15AM 59.4781 17.1702 285° West 435 501 34,000  Level FlightAware ADS-B
06:16AM 59.4983 17.0165 285° West 434 499 34,000  Level FlightAware ADS-B
06:16AM 59.5177 16.8684 285° West 435 501 34,000  Level FlightAware ADS-B
06:17AM 59.5388 16.7058 284° West 437 503 34,000  Level FlightAware ADS-B
06:18AM 59.5586 16.5515 284° West 437 503 34,000  Level FlightAware ADS-B
06:18AM 59.5764 16.4106 284° West 439 505 34,000  Level FlightAware ADS-B
06:19AM 59.5999 16.2238 284° West 440 506 34,000  Level FlightAware ADS-B
06:20AM 59.6258 16.0141 284° West 440 506 34,000  Level FlightAware ADS-B
06:55AM 60.6493 7.5225 282° West 442 509 34,000  Level FlightAware ADS-B (CYFC)
06:56AM 60.6664 7.3579 282° West 441 507 34,000  Level FlightAware ADS-B (CYFC)
06:56AM 60.6826 7.1998 282° West 439 505 34,000  Level FlightAware ADS-B (CYFC)
06:57AM 60.6996 7.0322 282° West 440 506 34,000  Level FlightAware ADS-B (CYFC)
06:58AM 60.7149 6.8807 282° West 440 506 34,000  Level FlightAware ADS-B (CYFC)
06:59AM 60.7319 6.7087 282° West 441 507 34,000  Level FlightAware ADS-B (CYFC)
06:59AM 60.7464 6.5616 281° West 441 507 34,000  Level FlightAware ADS-B (CYFC)
07:00AM 60.7636 6.3800 281° West 442 509 34,000  Level FlightAware ADS-B (CYFC)
07:00AM 60.7785 6.2252 281° West 444 511 34,000  Level FlightAware ADS-B (CYFC)
07:01AM 60.7936 6.0644 281° West 444 511 34,000  Level FlightAware ADS-B (CYFC)
07:02AM 60.8090 5.8982 281° West 445 512 34,000  Level FlightAware ADS-B (CYFC)
07:03AM 60.8250 5.7217 281° West 446 513 34,000  Level FlightAware ADS-B (CYFC)
07:03AM 60.8381 5.5757 280° West 446 513 34,000 Level FlightAware ADS-B (CYFC)
07:06AM 60.8862 5.0003 280° West  Level Estimated
07:07AM 60.9055 4.7601 279° West  Level Estimated
07:08AM 60.9244 4.5196 279° West  Level Estimated
07:09AM 60.9428 4.2788 279° West  Level Estimated
07:10AM 60.9608 4.0377 279° West  Level Estimated
07:11AM 60.9784 3.7964 279° West  Level Estimated
07:12AM 60.9956 3.5548 278° West  Level Estimated
07:13AM 61.0123 3.3129 278° West  Level Estimated
07:14AM 61.0286 3.0708 278° West  Level Estimated
07:15AM 61.0444 2.8285 278° West  Level Estimated
07:16AM 61.0598 2.5859 278° West  Level Estimated
07:17AM 61.0748 2.3431 277° West  Level Estimated
07:18AM 61.0894 2.1000 277° West  Level Estimated
07:19AM 61.1035 1.8567 277° West  Level Estimated
07:20AM 61.1171 1.6133 277° West  Level Estimated
07:21AM 61.1304 1.3695 277° West  Level Estimated
07:22AM 61.1432 1.1257 276° West  Level Estimated
07:23AM 61.1555 0.8816 276° West  Level Estimated
07:24AM 61.1675 0.6373 276° West  Level Estimated
07:25AM 61.1790 0.3928 276° West  Level Estimated
07:26AM 61.1900 0.1482 275° West  Level Estimated
07:27AM 61.2006 -0.0966 275° West  Level Estimated
07:28AM 61.2107 -0.3416 275° West  Level Estimated
07:29AM 61.2205 -0.5867 275° West  Level Estimated
07:30AM 61.2297 -0.8320 275° West  Level Estimated
07:31AM 61.2385 -1.0774 274° West  Level Estimated
07:32AM 61.2469 -1.3229 274° West  Level Estimated
07:33AM 61.2549 -1.5686 274° West  Level Estimated
07:34AM 61.2624 -1.8144 274° West  Level Estimated
07:35AM 61.2694 -2.0603 274° West  Level Estimated
07:36AM 61.2760 -2.3063 273° West  Level Estimated
07:37AM 61.2822 -2.5524 273° West  Level Estimated
07:38AM 61.2879 -2.7986 273° West  Level Estimated
07:39AM 61.2932 -3.0449 273° West  Level Estimated
07:40AM 61.2980 -3.2912 272° West  Level Estimated
07:41AM 61.3023 -3.5377 272° West  Level Estimated
07:42AM 61.3063 -3.7842 272° West  Level Estimated
07:43AM 61.3097 -4.0308 272° West  Level Estimated
07:44AM 61.3128 -4.2774 272° West  Level Estimated
07:45AM 61.3154 -4.5240 271° West  Level Estimated
07:46AM 61.3175 -4.7707 271° West  Level Estimated
07:47AM 61.3192 -5.0175 271° West  Level Estimated
07:48AM 61.3204 -5.2642 271° West  Level Estimated
07:49AM 61.3213 -5.5110 270° West  Level Estimated
07:50AM 61.3216 -5.7578 270° West  Level Estimated
07:51AM 61.3215 -6.0045 270° West  Level Estimated
07:52AM 61.3210 -6.2513 270° West  Level Estimated
07:53AM 61.3200 -6.4981 270° West  Level Estimated
07:54AM 61.3185 -6.7448 269° West  Level Estimated
07:55AM 61.3166 -6.9915 269° West  Level Estimated
07:56AM 61.3143 -7.2382 269° West  Level Estimated
07:57AM 61.3115 -7.4849 269° West  Level Estimated
07:58AM 61.3083 -7.7315 269° West  Level Estimated
07:59AM 61.3046 -7.9780 268° West  Level Estimated
08:00AM 61.3005 -8.2245 268° West  Level Estimated
08:01AM 61.2959 -8.4709 268° West  Level Estimated
08:02AM 61.2909 -8.7172 268° West  Level Estimated
08:03AM 61.2855 -8.9635 267° West  Level Estimated
08:04AM 61.2795 -9.2096 267° West  Level Estimated
08:05AM 61.2732 -9.4557 267° West  Level Estimated
08:06AM 61.2664 -9.7017 267° West  Level Estimated
08:07AM 61.2592 -9.9475 267° West  Level Estimated
08:08AM 61.2515 -10.1933 266° West  Level Estimated
08:09AM 61.2433 -10.4389 266° West  Level Estimated
08:10AM 61.2348 -10.6844 266° West  Level Estimated
08:11AM 61.2257 -10.9297 266° West  Level Estimated
08:12AM 61.2163 -11.1749 266° West  Level Estimated
08:13AM 61.2064 -11.4200 265° West  Level Estimated
08:14AM 61.1960 -11.6649 265° West  Level Estimated
08:15AM 61.1852 -11.9096 265° West  Level Estimated
08:16AM 61.1740 -12.1541 265° West  Level Estimated
08:17AM 61.1623 -12.3985 264° West  Level Estimated
08:18AM 61.1502 -12.6427 264° West  Level Estimated
08:19AM 61.1377 -12.8867 264° West  Level Estimated
08:20AM 61.1247 -13.1305 264° West  Level Estimated
08:21AM 61.1113 -13.3742 264° West  Level Estimated
08:22AM 61.0974 -13.6175 263° West  Level Estimated
08:23AM 61.0831 -13.8607 263° West  Level Estimated
08:24AM 61.0684 -14.1037 263° West  Level Estimated
08:25AM 61.0532 -14.3464 263° West  Level Estimated
08:26AM 61.0376 -14.5889 263° West  Level Estimated
08:27AM 61.0215 -14.8312 262° West  Level Estimated
08:28AM 61.0051 -15.0732 262° West  Level Estimated
08:29AM 60.9882 -15.3149 262° West  Level Estimated
08:30AM 60.9708 -15.5564 262° West  Level Estimated
08:31AM 60.9530 -15.7976 261° West  Level Estimated
08:32AM 60.9348 -16.0386 261° West  Level Estimated
08:33AM 60.9162 -16.2792 261° West  Level Estimated
08:34AM 60.8972 -16.5196 261° West  Level Estimated
08:35AM 60.8777 -16.7597 261° West  Level Estimated
08:36AM 60.8577 -16.9995 260° West  Level Estimated
08:37AM 60.8374 -17.2390 260° West  Level Estimated
08:38AM 60.8166 -17.4782 260° West  Level Estimated
08:39AM 60.7954 -17.7171 260° West  Level Estimated
08:40AM 60.7738 -17.9556 260° West  Level Estimated
08:41AM 60.7518 -18.1939 259° West  Level Estimated
08:42AM 60.7293 -18.4318 259° West  Level Estimated
08:43AM 60.7065 -18.6693 259° West  Level Estimated
08:44AM 60.6832 -18.9065 259° West  Level Estimated
08:45AM 60.6594 -19.1434 259° West  Level Estimated
08:46AM 60.6353 -19.3800 258° West  Level Estimated
08:47AM 60.6107 -19.6161 258° West  Level Estimated
08:48AM 60.5858 -19.8519 258° West  Level Estimated
08:49AM 60.5604 -20.0874 258° West  Level Estimated
08:50AM 60.5346 -20.3225 258° West  Level Estimated
08:51AM 60.5084 -20.5571 257° West  Level Estimated
08:52AM 60.4817 -20.7915 257° West  Level Estimated
08:53AM 60.4547 -21.0254 257° West  Level Estimated
08:54AM 60.4273 -21.2589 257° West  Level Estimated
08:55AM 60.3994 -21.4920 257° West  Level Estimated
08:56AM 60.3712 -21.7248 256° West  Level Estimated
08:57AM 60.3425 -21.9571 256° West  Level Estimated
08:58AM 60.3134 -22.1890 256° West  Level Estimated
08:59AM 60.2840 -22.4205 256° West  Level Estimated
09:00AM 60.2541 -22.6516 255° West  Level Estimated
09:01AM 60.2238 -22.8822 255° West  Level Estimated
09:02AM 60.1931 -23.1124 255° West  Level Estimated
09:03AM 60.1621 -23.3422 255° West  Level Estimated
09:04AM 60.1306 -23.5716 255° West  Level Estimated
09:05AM 60.0988 -23.8005 254° West  Level Estimated
09:06AM 60.0665 -24.0290 254° West  Level Estimated
09:07AM 60.0338 -24.2570 254° West  Level Estimated
09:08AM 60.0008 -24.4846 254° West  Level Estimated
09:09AM 59.9674 -24.7117 254° West  Level Estimated
09:10AM 59.9336 -24.9383 254° West  Level Estimated
09:11AM 59.8993 -25.1645 253° West  Level Estimated
09:12AM 59.8647 -25.3902 253° West  Level Estimated
09:13AM 59.8298 -25.6155 253° West  Level Estimated
09:14AM 59.7944 -25.8403 253° West  Level Estimated
09:15AM 59.7586 -26.0646 253° West  Level Estimated
09:16AM 59.7225 -26.2884 252° West  Level Estimated
09:17AM 59.6860 -26.5117 252° West  Level Estimated
09:18AM 59.6491 -26.7345 252° West  Level Estimated
09:19AM 59.6119 -26.9569 252° West  Level Estimated
09:20AM 59.5742 -27.1787 252° West  Level Estimated
09:21AM 59.5362 -27.4001 251° West  Level Estimated
09:22AM 59.4978 -27.6209 251° West  Level Estimated
09:23AM 59.4590 -27.8412 251° West  Level Estimated
09:24AM 59.4199 -28.0611 251° West  Level Estimated
09:25AM 59.3804 -28.2804 251° West  Level Estimated
09:26AM 59.3406 -28.4992 250° West  Level Estimated
09:27AM 59.3003 -28.7175 250° West  Level Estimated
09:28AM 59.2597 -28.9353 250° West  Level Estimated
09:29AM 59.2188 -29.1526 250° West  Level Estimated
09:30AM 59.1775 -29.3693 250° West  Level Estimated
09:31AM 59.1358 -29.5855 249° West  Level Estimated
09:32AM 59.0937 -29.8012 249° West  Level Estimated
09:33AM 59.0513 -30.0164 249° West  Level Estimated
09:34AM 59.0086 -30.2310 249° West  Level Estimated
09:35AM 58.9655 -30.4451 249° West  Level Estimated
09:36AM 58.9220 -30.6586 249° West  Level Estimated
09:37AM 58.8782 -30.8716 248° West  Level Estimated
09:38AM 58.8341 -31.0841 248° West  Level Estimated
09:39AM 58.7896 -31.2960 248° West  Level Estimated
09:40AM 58.7447 -31.5074 248° West  Level Estimated
09:41AM 58.6995 -31.7183 248° West  Level Estimated
09:42AM 58.6540 -31.9285 247° West  Level Estimated
09:43AM 58.6081 -32.1383 247° West  Level Estimated
09:44AM 58.5619 -32.3475 247° West  Level Estimated
09:45AM 58.5153 -32.5561 247° West  Level Estimated
09:46AM 58.4684 -32.7642 247° West  Level Estimated
09:47AM 58.4212 -32.9717 247° West  Level Estimated
09:48AM 58.3736 -33.1787 246° West  Level Estimated
09:49AM 58.3257 -33.3851 246° West  Level Estimated
09:50AM 58.2775 -33.5909 246° West  Level Estimated
09:51AM 58.2289 -33.7962 246° West  Level Estimated
09:52AM 58.1800 -34.0009 246° West  Level Estimated
09:53AM 58.1308 -34.2051 246° West  Level Estimated
09:54AM 58.0813 -34.4086 245° Southwest  Level Estimated
09:55AM 58.0314 -34.6117 245° Southwest  Level Estimated
09:56AM 57.9812 -34.8141 245° Southwest  Level Estimated
09:57AM 57.9307 -35.0160 245° Southwest  Level Estimated
09:58AM 57.8799 -35.2173 245° Southwest  Level Estimated
09:59AM 57.8287 -35.4181 244° Southwest  Level Estimated
10:00AM 57.7773 -35.6183 244° Southwest  Level Estimated
10:01AM 57.7255 -35.8179 244° Southwest  Level Estimated
10:02AM 57.6734 -36.0169 244° Southwest  Level Estimated
10:03AM 57.6210 -36.2154 244° Southwest  Level Estimated
10:04AM 57.5683 -36.4132 244° Southwest  Level Estimated
10:05AM 57.5153 -36.6106 243° Southwest  Level Estimated
10:06AM 57.4619 -36.8073 243° Southwest  Level Estimated
10:07AM 57.4083 -37.0035 243° Southwest  Level Estimated
10:08AM 57.3544 -37.1991 243° Southwest  Level Estimated
10:09AM 57.3001 -37.3941 243° Southwest  Level Estimated
10:10AM 57.2456 -37.5885 243° Southwest  Level Estimated
10:11AM 57.1908 -37.7824 242° Southwest  Level Estimated
10:12AM 57.1356 -37.9757 242° Southwest  Level Estimated
10:13AM 57.0802 -38.1684 242° Southwest  Level Estimated
10:14AM 57.0244 -38.3605 242° Southwest  Level Estimated
10:15AM 56.9684 -38.5521 242° Southwest  Level Estimated
10:16AM 56.9121 -38.7430 242° Southwest  Level Estimated
10:17AM 56.8555 -38.9334 242° Southwest  Level Estimated
10:18AM 56.7986 -39.1233 241° Southwest  Level Estimated
10:19AM 56.7415 -39.3125 241° Southwest  Level Estimated
10:20AM 56.6840 -39.5012 241° Southwest  Level Estimated
10:21AM 56.6262 -39.6893 241° Southwest  Level Estimated
10:22AM 56.5682 -39.8768 241° Southwest  Level Estimated
10:23AM 56.5099 -40.0637 241° Southwest  Level Estimated
10:24AM 56.4513 -40.2501 240° Southwest  Level Estimated
10:25AM 56.3924 -40.4359 240° Southwest  Level Estimated
10:26AM 56.3333 -40.6211 240° Southwest  Level Estimated
10:27AM 56.2739 -40.8058 240° Southwest  Level Estimated
10:28AM 56.2142 -40.9898 240° Southwest  Level Estimated
10:29AM 56.1542 -41.1733 240° Southwest  Level Estimated
10:30AM 56.0939 -41.3563 239° Southwest  Level Estimated
10:31AM 56.0334 -41.5386 239° Southwest  Level Estimated
10:32AM 55.9727 -41.7204 239° Southwest  Level Estimated
10:33AM 55.9116 -41.9016 239° Southwest  Level Estimated
10:34AM 55.8503 -42.0822 239° Southwest  Level Estimated
10:35AM 55.7887 -42.2623 239° Southwest  Level Estimated
10:36AM 55.7269 -42.4418 239° Southwest  Level Estimated
10:37AM 55.6648 -42.6207 238° Southwest  Level Estimated
10:38AM 55.6024 -42.7991 238° Southwest  Level Estimated
10:39AM 55.5398 -42.9769 238° Southwest  Level Estimated
10:40AM 55.4769 -43.1541 238° Southwest  Level Estimated
10:41AM 55.4138 -43.3307 238° Southwest  Level Estimated
10:42AM 55.3504 -43.5068 238° Southwest  Level Estimated
10:43AM 55.2868 -43.6824 238° Southwest  Level Estimated
10:44AM 55.2229 -43.8573 237° Southwest  Level Estimated
10:45AM 55.1588 -44.0317 237° Southwest  Level Estimated
10:46AM 55.0944 -44.2056 237° Southwest  Level Estimated
10:47AM 55.0298 -44.3789 237° Southwest  Level Estimated
10:48AM 54.9612 -44.5614 237° Southwest  Level Estimated
10:49AM 54.8924 -44.7433 237° Southwest  Level Estimated
10:50AM 54.8233 -44.9245 237° Southwest  Level Estimated
10:51AM 54.7539 -45.1052 236° Southwest  Level Estimated
10:52AM 54.6843 -45.2852 236° Southwest  Level Estimated
10:53AM 54.6143 -45.4646 236° Southwest  Level Estimated
10:54AM 54.5442 -45.6434 236° Southwest  Level Estimated
10:55AM 54.4737 -45.8216 236° Southwest  Level Estimated
10:56AM 54.4030 -45.9991 236° Southwest  Level Estimated
10:57AM 54.3321 -46.1761 236° Southwest  Level Estimated
10:58AM 54.2609 -46.3524 235° Southwest  Level Estimated
10:59AM 54.1894 -46.5281 235° Southwest  Level Estimated
11:00AM 54.1177 -46.7033 235° Southwest  Level Estimated
11:01AM 54.0457 -46.8778 235° Southwest  Level Estimated
11:01AM 62.2167 -59.1167 234° Southwest 310 357 35,000  Level Montreal Center
11:02AM 53.9735 -47.0517 235° Southwest  Level Estimated
11:02AM 62.1667 -59.3667 247° West 460 529 35,000  Level Montreal Center
11:02AM 62.1667 -59.3667 247° West 460 529 35,000  Level Montreal Center
11:03AM 53.9010 -47.2250 235° Southwest  Level Estimated
11:03AM 62.1000 -59.5833 237° Southwest 470 541 35,000  Level Montreal Center
11:03AM 62.1000 -59.5833 237° Southwest 470 541 35,000  Level Montreal Center
11:04AM 53.8283 -47.3977 235° Southwest  Level Estimated
11:04AM 62.0333 -59.8333 240° Southwest 460 529 35,000  Level Montreal Center
11:04AM 62.0333 -59.8333 240° Southwest 460 529 35,000  Level Montreal Center
11:05AM 53.7553 -47.5698 234° Southwest  Level Estimated
11:05AM 61.9500 -60.0333 229° Southwest 450 518 35,000  Level Montreal Center
11:05AM 61.9500 -60.0333 229° Southwest 450 518 35,000  Level Montreal Center
11:06AM 53.6821 -47.7413 234° Southwest  Level Estimated
11:06AM 61.8667 -60.2167 226° Southwest 450 518 35,000  Level Montreal Center
11:06AM 61.8667 -60.2167 226° Southwest 450 518 35,000  Level Montreal Center
11:07AM 61.7833 -60.3667 220° Southwest 440 506 35,000  Level Montreal Center
11:07AM 61.7833 -60.3667 220° Southwest 440 506 35,000  Level Montreal Center
11:08AM 61.6833 -60.5667 224° Southwest 440 506 35,000  Level Montreal Center
11:09AM 61.6000 -60.7167 221° Southwest 430 495 35,000  Level Montreal Center
11:10AM 61.5000 -60.9000 221° Southwest 430 495 35,000  Level Montreal Center
11:11AM 61.4000 -61.0500 216° Southwest 440 506 35,000  Level Montreal Center
11:12AM 61.3000 -61.2000 216° Southwest 440 506 35,000  Level Montreal Center
11:13AM 61.2167 -61.3833 227° Southwest 440 506 35,000  Level Montreal Center
11:14AM 61.1333 -61.5333 221° Southwest 430 495 35,000  Level Montreal Center
11:15AM 61.0333 -61.7167 222° Southwest 440 506 35,000  Level Montreal Center
11:16AM 60.9500 -61.8667 221° Southwest 440 506 35,000  Level Montreal Center
11:17AM 60.8500 -62.0500 222° Southwest 440 506 35,000  Level Montreal Center
11:18AM 60.7500 -62.1833 213° Southwest 440 506 35,000  Level Montreal Center
11:19AM 60.6500 -62.3333 216° Southwest 440 506 35,000  Level Montreal Center
11:20AM 60.5667 -62.5667 234° Southwest 440 506 35,000  Level Montreal Center
11:21AM 60.5333 -62.8000 254° West 460 529 35,000  Level Montreal Center
11:22AM 60.4833 -63.0667 249° West 470 541 35,000  Level Montreal Center
11:23AM 60.4500 -63.3167 255° West 470 541 35,000  Level Montreal Center
11:24AM 60.4167 -63.5333 253° West 470 541 35,000 500 Level Montreal Center
11:25AM 60.3500 -63.8000 243° Southwest 460 529 36,000 500 Climbing Montreal Center
11:26AM 60.3000 -64.0167 245° Southwest 470 541 36,000  Level Montreal Center
11:27AM 60.2667 -64.3167 257° West 470 541 36,000  Level Montreal Center
11:28AM 60.2167 -64.5333 245° Southwest 470 541 36,000  Level Montreal Center
11:29AM 60.1667 -64.7833 248° West 470 541 36,000  Level Montreal Center
11:30AM 60.1167 -65.0167 247° West 460 529 36,000  Level Montreal Center
11:31AM 60.0333 -65.2000 228° Southwest 460 529 36,000  Level Montreal Center
11:32AM 59.9333 -65.3667 220° Southwest 460 529 36,000  Level Montreal Center
11:33AM 59.8500 -65.5333 225° Southwest 460 529 36,000  Level Montreal Center
11:34AM 59.7500 -65.7333 225° Southwest 450 518 36,000  Level Montreal Center
11:35AM 59.6500 -65.9000 220° Southwest 450 518 36,000  Level Montreal Center
11:36AM 59.5667 -66.0500 222° Southwest 450 518 36,000  Level Montreal Center
11:37AM 59.4667 -66.2167 220° Southwest 460 529 36,000  Level Montreal Center
11:38AM 59.3667 -66.3833 220° Southwest 460 529 36,000  Level Montreal Center
11:39AM 59.2667 -66.5333 217° Southwest 460 529 36,000  Level Montreal Center
11:40AM 59.1667 -66.7000 221° Southwest 460 529 36,000  Level Montreal Center
11:41AM 59.0667 -66.8500 218° Southwest 460 529 36,000  Level Montreal Center
11:42AM 58.9833 -67.0167 226° Southwest 460 529 36,000  Level Montreal Center
11:43AM 58.8667 -67.1667 214° Southwest 470 541 36,000  Level Montreal Center
11:44AM 58.7833 -67.3500 229° Southwest 460 529 36,000  Level Montreal Center
11:45AM 58.6667 -67.5167 217° Southwest 460 529 36,000  Level Montreal Center
11:46AM 58.5833 -67.6667 223° Southwest 460 529 36,000  Level Montreal Center
11:47AM 58.4667 -67.8167 214° Southwest 460 529 36,000  Level Montreal Center
11:48AM 58.3833 -67.9667 223° Southwest 460 529 36,000  Level Montreal Center
11:49AM 58.2667 -68.1167 214° Southwest 460 529 36,000  Level Montreal Center
11:50AM 58.1833 -68.3000 229° Southwest 480 552 36,000  Level Montreal Center
11:52AM 58.0000 -68.5167 212° Southwest 470 541 36,000  Level Montreal Center
11:53AM 57.9000 -68.6667 219° Southwest 460 529 36,000  Level Montreal Center
11:54AM 57.8000 -68.8167 219° Southwest 460 529 36,000  Level Montreal Center
11:55AM 57.7000 -68.9667 219° Southwest 460 529 36,000  Level Montreal Center
11:56AM 57.6000 -69.0833 212° Southwest 450 518 36,000  Level Montreal Center
11:57AM 57.4833 -69.2333 215° Southwest 450 518 36,000  Level Montreal Center
11:58AM 57.4000 -69.3667 221° Southwest 450 518 36,000  Level Montreal Center
11:59AM 57.2833 -69.5167 215° Southwest 450 518 36,000  Level Montreal Center
12:00PM 57.1833 -69.6167 208° Southwest 460 529 36,000  Level Montreal Center
12:01PM 57.0833 -69.7667 219° Southwest 460 529 36,000  Level Montreal Center
12:02PM 56.9833 -69.9000 216° Southwest 450 518 36,000  Level Montreal Center
12:03PM 56.8667 -70.0500 215° Southwest 460 529 36,000  Level Montreal Center
12:04PM 56.7833 -70.1833 221° Southwest 460 529 36,000  Level Montreal Center
12:05PM 56.6667 -70.3000 209° Southwest 460 529 36,000  Level Montreal Center
12:06PM 56.5500 -70.4333 212° Southwest 460 529 36,000  Level Montreal Center
12:07PM 56.4333 -70.5667 212° Southwest 460 529 36,000  Level Montreal Center
12:08PM 56.3500 -70.7000 222° Southwest 460 529 36,000  Level Montreal Center
12:09PM 56.2500 -70.8333 217° Southwest 450 518 36,000  Level Montreal Center
12:10PM 56.1333 -70.9833 216° Southwest 460 529 36,000  Level Montreal Center
12:11PM 56.0167 -71.0833 206° Southwest 460 529 36,000  Level Montreal Center
12:12PM 55.9167 -71.2167 217° Southwest 460 529 36,000  Level Montreal Center
12:13PM 55.8167 -71.3500 217° Southwest 460 529 36,000  Level Montreal Center
12:14PM 55.7000 -71.4833 213° Southwest 450 518 36,000  Level Montreal Center
12:15PM 55.6000 -71.5833 209° Southwest 450 518 36,000  Level Montreal Center
12:16PM 55.5000 -71.7167 217° Southwest 450 518 36,000  Level Montreal Center
12:17PM 55.3833 -71.8333 210° Southwest 450 518 36,000  Level Montreal Center
12:18PM 55.3000 -71.9333 214° Southwest 450 518 36,000  Level Montreal Center
12:19PM 55.1833 -72.0667 213° Southwest 450 518 36,000  Level Montreal Center
12:20PM 55.0833 -72.2000 217° Southwest 450 518 36,000  Level Montreal Center
12:21PM 54.9667 -72.3167 210° Southwest 450 518 36,000  Level Montreal Center
12:22PM 54.8500 -72.4500 213° Southwest 460 529 36,000  Level Montreal Center
12:23PM 54.7500 -72.5500 210° Southwest 450 518 36,000  Level Montreal Center
12:24PM 54.6500 -72.6667 214° Southwest 460 529 36,000  Level Montreal Center
12:25PM 54.5500 -72.8000 218° Southwest 450 518 36,000  Level Montreal Center
12:26PM 54.4333 -72.9167 210° Southwest 450 518 36,000  Level Montreal Center
12:27PM 54.3333 -73.0167 210° Southwest 450 518 36,000  Level Montreal Center
12:28PM 54.2167 -73.1333 210° Southwest 450 518 36,000  Level Montreal Center
12:29PM 54.1167 -73.2667 218° Southwest 450 518 36,000  Level Montreal Center
12:30PM 54.0167 -73.3833 214° Southwest 450 518 36,000  Level Montreal Center
12:31PM 53.9000 -73.4833 207° Southwest 450 518 36,000  Level Montreal Center
12:32PM 53.7833 -73.6000 211° Southwest 450 518 36,000  Level Montreal Center
12:33PM 53.6667 -73.7167 211° Southwest 450 518 36,000  Level Montreal Center
12:34PM 53.5667 -73.8167 211° Southwest 450 518 36,000  Level Montreal Center
12:35PM 53.4500 -73.9000 203° Southwest 450 518 36,000  Level Montreal Center
12:36PM 53.3333 -74.0167 211° Southwest 450 518 36,000  Level Montreal Center
12:37PM 53.2167 -74.1000 203° Southwest 450 518 36,000  Level Montreal Center
12:38PM 53.1167 -74.2000 211° Southwest 450 518 36,000  Level Montreal Center
12:39PM 53.0000 -74.2833 203° Southwest 460 529 36,000  Level Montreal Center
12:40PM 52.8833 -74.3667 203° Southwest 450 518 36,000  Level Montreal Center
12:41PM 52.7667 -74.4667 207° Southwest 450 518 36,000  Level Montreal Center
12:42PM 52.6833 -74.5500 211° Southwest 440 506 36,000  Level Montreal Center
12:43PM 52.5500 -74.6333 201° Southwest 450 518 36,000  Level Montreal Center
12:44PM 52.4333 -74.7500 211° Southwest 440 506 36,000  Level Montreal Center
12:45PM 52.3167 -74.8333 204° Southwest 440 506 36,000  Level Montreal Center
12:46PM 52.2167 -74.9167 207° Southwest 440 506 36,000  Level Montreal Center
12:47PM 52.1000 -75.0000 204° Southwest 440 506 36,000  Level Montreal Center
12:48PM 51.9833 -75.0833 204° Southwest 470 541 36,000  Level Montreal Center
12:49PM 51.8667 -75.1667 204° Southwest 450 518 36,000  Level Montreal Center
12:50PM 51.7667 -75.2500 207° Southwest 440 506 36,000  Level Montreal Center
12:51PM 51.6500 -75.3667 212° Southwest 450 518 36,000  Level Montreal Center
12:52PM 51.5333 -75.4500 204° Southwest 450 518 36,000  Level Montreal Center
12:53PM 51.4167 -75.5333 204° Southwest 450 518 36,000  Level Montreal Center
12:54PM 51.3167 -75.6167 208° Southwest 440 506 36,000  Level Montreal Center
12:55PM 51.2000 -75.7000 204° Southwest 440 506 36,000  Level Montreal Center
12:56PM 51.0833 -75.7833 204° Southwest 440 506 36,000  Level Montreal Center
12:57PM 50.9833 -75.8500 203° Southwest 440 506 36,000  Level Montreal Center
12:58PM 50.8667 -75.9333 204° Southwest 440 506 36,000  Level Montreal Center
12:59PM 50.7500 -76.0167 204° Southwest 450 518 36,000  Level Montreal Center
01:00PM 50.6333 -76.1167 209° Southwest 450 518 36,000  Level Montreal Center
01:01PM 50.5333 -76.2000 208° Southwest 450 518 36,000  Level Montreal Center
01:02PM 50.4167 -76.2833 204° Southwest 450 518 36,000  Level Montreal Center
01:03PM 50.3000 -76.3667 205° Southwest 450 518 36,000  Level Montreal Center
01:04PM 50.2000 -76.4333 203° Southwest 440 506 36,000  Level Montreal Center
01:05PM 50.0667 -76.5167 202° Southwest 440 506 36,000  Level Montreal Center
01:06PM 49.9500 -76.6000 205° Southwest 450 518 36,000  Level Montreal Center
01:07PM 49.8333 -76.7000 209° Southwest 450 518 36,000  Level Montreal Center
01:08PM 49.7333 -76.7667 203° Southwest 440 506 36,000  Level Montreal Center
01:09PM 49.6167 -76.8500 205° Southwest 450 518 36,000  Level Montreal Center
01:10PM 49.5167 -76.9167 203° Southwest 420 483 36,000  Level Montreal Center
01:11PM 49.3833 -77.0000 202° Southwest 460 529 36,000  Level Montreal Center
01:12PM 49.2833 -77.0667 204° Southwest 430 495 36,000  Level Montreal Center
01:13PM 49.1667 -77.1500 205° Southwest 430 495 36,000  Level Montreal Center
01:14PM 49.0667 -77.2167 204° Southwest 440 506 36,000  Level Montreal Center
01:15PM 48.9667 -77.3000 209° Southwest 430 495 36,000  Level Montreal Center
01:16PM 48.8333 -77.3667 198° South 440 506 36,000  Level Montreal Center
01:17PM 48.7167 -77.4500 205° Southwest 430 495 36,000  Level Montreal Center
01:18PM 48.6000 -77.5500 210° Southwest 440 506 36,000  Level Montreal Center
01:19PM 48.5000 -77.6167 204° Southwest 440 506 36,000  Level Montreal Center
01:20PM 48.4000 -77.6833 204° Southwest 440 506 36,000  Level Montreal Center
01:21PM 48.2833 -77.7667 205° Southwest 440 506 36,000  Level Montreal Center
01:22PM 48.1667 -77.8333 201° Southwest 440 506 36,000  Level Montreal Center
01:23PM 48.0500 -77.9000 201° Southwest 440 506 36,000  Level Montreal Center
01:24PM 47.9333 -77.9667 201° Southwest 450 518 36,000  Level Montreal Center
01:25PM 47.8000 -78.0500 203° Southwest 450 518 36,000  Level Montreal Center
01:26PM 47.7000 -78.0833 193° South 450 518 36,000  Level Montreal Center
01:27PM 47.5833 -78.1500 201° Southwest 450 518 36,000  Level Montreal Center
01:28PM 47.4667 -78.2333 206° Southwest 450 518 36,000  Level Montreal Center
01:29PM 47.3500 -78.3000 201° Southwest 450 518 36,000  Level Montreal Center
01:30PM 47.2333 -78.3667 201° Southwest 450 518 36,000  Level Montreal Center
01:31PM 47.1000 -78.4333 199° South 450 518 36,000  Level Montreal Center
01:32PM 47.0000 -78.5000 204° Southwest 450 518 36,000  Level Montreal Center
01:33PM 46.8833 -78.5667 201° Southwest 450 518 36,000  Level Montreal Center
01:34PM 46.8167 -78.5833 190° South 450 518 36,000  Level Toronto Center
01:35PM 46.6833 -78.6333 194° South 450 518 36,000  Level Toronto Center
01:41PM 46.0102 -79.0422 194° South 449 517 36,000  Level FlightAware ADS-B (CYOW)
01:42PM 45.8850 -79.1098 201° Southwest 449 517 36,000  Level FlightAware ADS-B (CYOW)
01:47PM 45.3080 -79.4166 201° Southwest 449 517 36,000  Level FlightAware ADS-B (CYKF)
01:48PM 45.1762 -79.4857 200° South 447 514 36,000  Level FlightAware ADS-B (CYKF)
01:50PM 44.9625 -79.5972 200° South 446 513 36,000  Level FlightAware ADS-B (CYKF)
01:53PM 44.6208 -79.7737 200° South 450 518 36,000  Level FlightAware ADS-B (CYKF)
01:54PM 44.4661 -79.8971 210° Southwest 437 503 36,000  Level FlightAware ADS-B (CYKF)
01:55PM 44.3687 -79.9856 213° Southwest 439 505 36,000  Level FlightAware ADS-B (CYKF)
01:56PM 44.2275 -80.1120 213° Southwest 439 505 36,000  Level FlightAware ADS-B (CYKF)
01:57PM 44.1781 -80.1562 213° Southwest 439 505 36,000  Level FlightAware ADS-B (CYKF)
01:58PM 44.1046 -80.2215 213° Southwest 443 510 36,000  Level FlightAware ADS-B (CYKF)
01:58PM 44.0198 -80.2968 213° Southwest 443 510 36,000  Level FlightAware ADS-B (CYKF)
01:59PM 43.9559 -80.3533 212° Southwest 441 507 36,000  Level FlightAware ADS-B (CYKF)
02:00PM 43.8828 -80.4175 212° Southwest 442 509 36,000  Level FlightAware ADS-B (CYKF)
02:00PM 43.8148 -80.4773 212° Southwest 445 512 36,000  Level FlightAware ADS-B (CYKF)
02:01PM 43.7479 -80.5359 212° Southwest 448 516 36,000  Level FlightAware ADS-B (CYKF)
02:02PM 43.6808 -80.5948 212° Southwest 449 517 36,000  Level FlightAware ADS-B (CYKF)
02:02PM 43.6172 -80.6503 212° Southwest 449 517 36,000  Level FlightAware ADS-B (CZBA)
02:03PM 43.5334 -80.7232 212° Southwest 447 514 36,000  Level FlightAware ADS-B (CYKF)
02:04PM 43.4629 -80.7843 212° Southwest 448 516 36,000  Level FlightAware ADS-B (CYKF)
02:04PM 43.3946 -80.8432 212° Southwest 450 518 36,000  Level FlightAware ADS-B (CYKF)
02:05PM 43.3472 -80.8840 212° Southwest 453 521 36,000  Level FlightAware ADS-B (CYKF)
02:06PM 43.2529 -80.9651 212° Southwest 450 518 36,000  Level FlightAware ADS-B (CYKF)
02:06PM 43.1808 -81.0270 212° Southwest 450 518 36,000  Level FlightAware ADS-B (CYKF)
02:07PM 43.1148 -81.0833 212° Southwest 451 519 36,000  Level FlightAware ADS-B (CYKF)
02:08PM 43.0409 -81.1448 211° Southwest 455 524 36,000  Level FlightAware ADS-B (CYKF)
02:08PM 42.9752 -81.1856 204° Southwest 457 526 36,000  Level FlightAware ADS-B (CYKF)
02:09PM 42.8879 -81.2413 205° Southwest 457 526 36,000  Level FlightAware ADS-B (CYKF)
02:10PM 42.8268 -81.2795 205° Southwest 458 527 36,000  Level FlightAware ADS-B (CYKF)
02:10PM 42.7373 -81.3346 204° Southwest 458 527 36,000  Level FlightAware ADS-B (CYKF)
02:11PM 42.6550 -81.3850 204° Southwest 457 526 36,000  Level FlightAware ADS-B (CYKF)
02:12PM 42.5395 -81.4556 204° Southwest 457 526 36,000  Level FlightAware ADS-B (CYKF)
02:13PM 42.4886 -81.4866 204° Southwest 457 526 36,000  Level FlightAware ADS-B (CYKF)
02:13PM 42.4162 -81.5306 204° Southwest 456 525 36,000  Level FlightAware ADS-B (CYKF)
02:14PM 42.3225 -81.5883 204° Southwest 457 526 36,000  Level Cleveland Center
02:15PM 42.2053 -81.6583 204° Southwest 457 526 36,000  Level Cleveland Center
02:16PM 42.0889 -81.7286 204° Southwest 456 525 36,000  Level Cleveland Center
02:17PM 41.9714 -81.7986 204° Southwest 457 526 36,000  Level Cleveland Center
02:18PM 41.8550 -81.8675 204° Southwest 456 525 36,000  Level Cleveland Center
02:19PM 41.7394 -81.9367 204° Southwest 455 524 36,000  Level Cleveland Center
02:20PM 41.6225 -82.0064 204° Southwest 456 525 36,000  Level Cleveland Center
02:21PM 41.5056 -82.0733 203° Southwest 456 525 36,000  Level Cleveland Center
02:22PM 41.3883 -82.1425 204° Southwest 458 527 36,000  Level Cleveland Center
02:23PM 41.2436 -82.2006 197° South 466 536 36,000  Level Cleveland Center
02:24PM 41.1178 -82.2472 196° South 467 537 36,000  Level Cleveland Center
02:25PM 40.9900 -82.2928 195° South 468 539 36,000  Level Cleveland Center
02:26PM 40.8633 -82.3386 195° South 469 540 36,000  Level Cleveland Center
02:27PM 40.7786 -82.3683 195° South 467 537 36,000  Level Indianapolis Center
02:28PM 40.6511 -82.4131 195° South 469 540 36,000  Level Indianapolis Center
02:29PM 40.5256 -82.4586 195° South 467 537 36,000  Level Indianapolis Center
02:35PM 39.7968 -82.6125 195° South 474 545 36,000  Level FlightAware ADS-B
02:35PM 39.7218 -82.6176 183° South 474 545 36,000  Level FlightAware ADS-B
02:36PM 39.6296 -82.6239 183° South 473 544 36,000  Level FlightAware ADS-B
02:37PM 39.5281 -82.6306 183° South 473 544 36,000  Level FlightAware ADS-B
02:38PM 39.3947 -82.6396 183° South 477 549 36,000  Level FlightAware ADS-B
02:38PM 39.3284 -82.6440 183° South 478 550 36,000  Level FlightAware ADS-B
02:39PM 39.2601 -82.6486 183° South 478 550 36,000  Level FlightAware ADS-B
02:39PM 39.1955 -82.6528 183° South 479 551 36,000  Level FlightAware ADS-B
02:40PM 39.1024 -82.6590 183° South 478 550 36,000  Level FlightAware ADS-B
02:40PM 39.0328 -82.6636 183° South 477 549 36,000  Level FlightAware ADS-B
02:41PM 38.9685 -82.6679 183° South 477 549 36,000  Level FlightAware ADS-B
02:42PM 38.8695 -82.6743 183° South 476 548 36,000  Level FlightAware ADS-B
02:43PM 38.7394 -82.6828 183° South 478 550 36,000  Level FlightAware ADS-B
02:43PM 38.6726 -82.6872 183° South 478 550 36,000  Level FlightAware ADS-B
02:44PM 38.5275 -82.6967 183° South 477 549 36,000  Level Indianapolis Center
02:45PM 38.3953 -82.7056 183° South 476 548 36,000  Level Indianapolis Center
02:46PM 38.2625 -82.7153 183° South 476 548 36,000  Level Indianapolis Center
02:47PM 38.1308 -82.7222 182° South 473 544 36,000  Level Indianapolis Center
02:48PM 37.9994 -82.7325 184° South 472 543 36,000  Level Indianapolis Center
02:49PM 37.8694 -82.7408 183° South 469 540 36,000  Level Indianapolis Center
02:50PM 37.7178 -82.7542 184° South 466 536 36,000  Level Indianapolis Center
02:51PM 37.5983 -82.8047 199° South 453 521 36,000  Level Indianapolis Center
02:52PM 37.4897 -82.8761 208° Southwest 443 510 36,000  Level Indianapolis Center
02:53PM 37.3806 -82.9478 208° Southwest 443 510 36,000  Level Indianapolis Center
02:55PM 37.2708 -83.0189 207° Southwest 445 512 36,000  Level Indianapolis Center
02:56PM 37.1611 -83.0908 208° Southwest 448 516 36,000  Level Indianapolis Center
02:57PM 37.0519 -83.1622 208° Southwest 447 514 36,000  Level Indianapolis Center
02:58PM 36.9233 -83.2458 207° Southwest 450 518 36,000  Level Indianapolis Center
02:59PM 36.8128 -83.3164 207° Southwest 451 519 36,000  Level Indianapolis Center
03:00PM 36.7025 -83.3872 207° Southwest 450 518 36,000  Level Indianapolis Center
03:01PM 36.5906 -83.4583 207° Southwest 452 520 36,000  Level Indianapolis Center
03:02PM 36.4789 -83.5317 208° Southwest 448 516 36,000  Level Indianapolis Center
03:03PM 36.3664 -83.6036 207° Southwest 451 519 36,000  Level Indianapolis Center
03:04PM 36.2542 -83.6744 207° Southwest 451 519 36,000  Level Indianapolis Center
03:05PM 36.1411 -83.7464 207° Southwest 454 522 36,000  Level Indianapolis Center
03:06PM 36.0433 -83.8075 207° Southwest 447 514 36,000  Level Atlanta Center
03:07PM 35.9289 -83.8797 207° Southwest 452 520 36,000  Level Atlanta Center
03:12PM 35.1478 -84.0779 207° Southwest 461 531 36,000  Level FlightAware ADS-B (KDZJ)
03:13PM 35.0461 -84.1021 191° South 458 527 36,000  Level FlightAware ADS-B (KDZJ)
03:13PM 34.9753 -84.1191 191° South 461 531 36,000  Level FlightAware ADS-B (KDZJ)
03:14PM 34.8927 -84.1388 191° South 461 531 36,000  Level FlightAware ADS-B (KDZJ)
03:15PM 34.8113 -84.1582 191° South 458 527 36,000  Level FlightAware ADS-B (KDZJ)
03:15PM 34.7323 -84.1770 191° South 459 528 36,000  Level FlightAware ADS-B (KDZJ)
03:16PM 34.6421 -84.1984 191° South 462 532 36,000  Level FlightAware ADS-B (KDZJ)
03:17PM 34.5639 -84.2168 191° South 461 531 36,000  Level FlightAware ADS-B (KDZJ)
03:17PM 34.4763 -84.2374 191° South 462 532 36,000  Level FlightAware ADS-B (KDZJ)
03:18PM 34.3908 -84.2576 191° South 460 529 36,000  Level FlightAware ADS-B (KDZJ)
03:19PM 34.3077 -84.2770 191° South 455 524 36,000  Level FlightAware ADS-B (KDZJ)
03:19PM 34.2244 -84.2965 191° South 455 524 36,000  Level FlightAware ADS-B (KDZJ)
03:20PM 34.1417 -84.3159 191° South 456 525 36,000  Level FlightAware ADS-B (KDZJ)
03:21PM 34.0589 -84.3353 191° South 458 527 36,000  Level FlightAware ADS-B (KDZJ)
03:21PM 33.9952 -84.3502 191° South 460 529 36,000  Level FlightAware ADS-B (KDZJ)
03:23PM 33.9086 -84.3717 191° South 460 529 36,000  Level Atlanta Center
03:24PM 33.7917 -84.3986 191° South 465 535 36,000  Level Atlanta Center
03:25PM 33.6683 -84.4281 191° South 465 535 36,000  Level Atlanta Center
03:26PM 33.5222 -84.4350 182° South 475 547 36,000  Level Atlanta Center
03:27PM 33.4053 -84.4344 180° South 475 547 36,000  Level Atlanta Center
03:28PM 33.2739 -84.4339 180° South 475 547 36,000  Level Atlanta Center
03:29PM 33.1425 -84.4283 178° South 470 541 36,000 -250 Level Atlanta Center
03:30PM 33.0172 -84.4278 180° South 465 535 35,500 -500 Descending Atlanta Center
03:31PM 32.8919 -84.4247 179° South 455 524 35,000 -250 Descending Atlanta Center
03:32PM 32.7564 -84.4167 177° South 448 516 35,000  Level Atlanta Center
03:33PM 32.6289 -84.4161 180° South 448 516 35,000  Level Atlanta Center
03:34PM 32.5036 -84.4133 179° South 448 516 35,000  Level Atlanta Center
03:35PM 32.3786 -84.4128 180° South 453 521 35,000  Level Atlanta Center
03:36PM 32.2511 -84.4097 179° South 458 527 35,000  Level Atlanta Center
03:37PM 32.1239 -84.4067 179° South 458 527 35,000  Level Atlanta Center
03:43PM 31.3207 -84.3888 179° South 470 541 35,000  Level FlightAware ADS-B
03:44PM 31.1128 -84.3847 179° South 458 527 35,000  Level FlightAware ADS-B
03:46PM 30.9403 -84.3815 179° South 458 527 35,000  Level FlightAware ADS-B
03:47PM 30.7694 -84.3782 179° South 464 534 35,000  Level FlightAware ADS-B
03:48PM 30.6842 -84.3730 177° South 476 548 35,000  Level FlightAware ADS-B
03:48PM 30.5863 -84.3532 170° South 498 573 35,000  Level FlightAware ADS-B
03:49PM 30.4978 -84.3220 163° South 513 590 35,000  Level FlightAware ADS-B
03:50PM 30.4171 -84.2813 157° South 530 610 35,000  Level FlightAware ADS-B
03:50PM 30.3208 -84.2193 151° Southeast 537 618 35,000  Level FlightAware ADS-B
03:51PM 30.2377 -84.1653 151° Southeast 537 618 35,000  Level FlightAware ADS-B
03:52PM 30.1490 -84.1075 151° Southeast 538 619 35,000  Level FlightAware ADS-B
03:52PM 30.0745 -84.0591 151° Southeast 538 619 35,000  Level FlightAware ADS-B
03:53PM 29.9737 -83.9936 151° Southeast 539 620 35,000  Level FlightAware ADS-B
03:54PM 29.9197 -83.9614 151° Southeast 542 624 35,000  Level Jacksonville Center
03:55PM 29.7908 -83.8761 150° Southeast 537 618 35,000  Level Jacksonville Center
03:56PM 29.6619 -83.7936 151° Southeast 532 612 35,000  Level Jacksonville Center
03:57PM 29.5311 -83.7089 151° Southeast 532 612 35,000  Level Jacksonville Center
03:58PM 29.4022 -83.6267 151° Southeast 532 612 35,000  Level Jacksonville Center
04:03PM 28.6384 -83.1404 151° Southeast 529 609 35,000  Level FlightAware ADS-B
04:05PM 28.4633 -83.0305 151° Southeast 527 606 35,000  Level FlightAware ADS-B
04:06PM 28.3266 -82.9448 151° Southeast 525 604 35,000  Level FlightAware ADS-B
04:07PM 28.2075 -82.8705 151° Southeast 523 602 35,000  Level FlightAware ADS-B
04:07PM 28.1296 -82.8220 151° Southeast 523 602 35,000  Level FlightAware ADS-B
04:08PM 28.0489 -82.7719 151° Southeast 524 603 35,000  Level FlightAware ADS-B
04:09PM 27.9575 -82.7152 151° Southeast 526 605 35,000  Level FlightAware ADS-B
04:09PM 27.8780 -82.6699 153° Southeast 514 592 35,000  Level FlightAware ADS-B
04:10PM 27.7777 -82.6209 157° South 514 592 35,000  Level FlightAware ADS-B
04:11PM 27.6882 -82.5756 156° South 515 593 35,000  Level FlightAware ADS-B
04:11PM 27.6191 -82.5404 156° South 516 594 35,000  Level FlightAware ADS-B
04:16PM 27.0810 -82.2666 156° South 514 592 35,000  Level FlightAware ADS-B
04:16PM 26.9728 -82.2119 156° South 514 592 35,000  Level FlightAware ADS-B
04:17PM 26.8230 -82.1364 156° South 513 590 35,000  Level FlightAware ADS-B
04:18PM 26.7335 -82.0916 156° South 516 594 35,000  Level FlightAware ADS-B
04:19PM 26.6458 -82.0475 156° South 518 596 35,000  Level FlightAware ADS-B
04:20PM 26.5572 -82.0031 156° South 518 596 35,000  Level FlightAware ADS-B
04:20PM 26.4705 -81.9597 156° South 517 595 35,000  Level FlightAware ADS-B
04:21PM 26.3828 -81.9159 156° South 517 595 35,000  Level FlightAware ADS-B
04:22PM 26.2970 -81.8732 156° South 517 595 35,000  Level FlightAware ADS-B
04:22PM 26.2095 -81.8297 156° South 516 594 35,000  Level FlightAware ADS-B
04:23PM 26.1220 -81.7862 156° South 517 595 35,000  Level FlightAware ADS-B
04:24PM 25.9453 -81.6985 156° South 516 594 35,000  Level FlightAware ADS-B
04:25PM 25.7857 -81.6198 156° South 518 596 35,000  Level FlightAware ADS-B
04:26PM 25.6561 -81.5561 156° South 516 594 35,000  Level Miami Center
04:27PM 25.5267 -81.4914 156° South 516 594 35,000  Level Miami Center
04:28PM 25.3931 -81.4289 157° South 516 594 35,000  Level Miami Center
04:29PM 25.2592 -81.3617 156° South 516 594 35,000 -250 Level Miami Center
04:30PM 25.1294 -81.2997 157° South 516 594 34,500 -700 Descending Miami Center
04:31PM 25.0081 -81.2381 155° Southeast 504 580 33,600 -1,000 Descending Miami Center
04:32PM 24.8825 -81.1808 158° South 498 573 32,500 -1,000 Descending Miami Center
04:33PM 24.7628 -81.1331 160° South 488 562 31,600 -950 Descending Miami Center
04:34PM 24.6400 -81.1153 173° South 465 535 30,600 -1,000 Descending Miami Center
04:35PM 24.5247 -81.1250 184° South 440 506 29,600 -1,000 Descending Miami Center
04:36PM 24.4136 -81.1439 189° South 418 481 28,600 -1,000 Descending Miami Center
04:37PM 24.3067 -81.1608 188° South 404 465 27,600 -1,000 Descending Miami Center
04:38PM 24.2017 -81.1800 189° South 393 452 26,600 -1,000 Descending Miami Center
04:39PM 24.0986 -81.2014 191° South 387 445 25,600 -1,550 Descending Miami Center
04:40PM 24.0058 -81.2369 199° South 377 434 23,500 -2,100 Descending Miami Center
04:42PM 23.9086 -81.3284 221° Southwest  Level FlightAware Approximate
04:49PM 23.3188 -82.0030 228° Southwest  Level FlightAware Approximate
04:50PM 23.2365 -82.1012 226° Southwest  Level FlightAware Approximate
04:51PM 23.1523 -82.1974 226° Southwest  Level FlightAware Approximate
04:52PM 23.0674 -82.2879 231° Southwest  Level FlightAware Approximate
04:53PM 22.9832 -82.3835 223° Southwest  Level FlightAware Approximate
04:54PM 22.9667 -82.4000 223° Southwest  Level FlightAware Approximate
04:55PM 22.9891 -82.4091 223° Southwest  Level Estimated
04:56PM 22.9891 -82.4091 223° Southwest  Level Estimated
04:57PM 22.9891 -82.4091 223° Southwest  Level Estimated
04:58PM 22.9891 -82.4091 223° Southwest  Level Estimated
04:59PM 22.9891 -82.4091 223° Southwest  Level Estimated
05:00PM 22.9891 -82.4091 223° Southwest  Level Estimated
05:01PM 22.9891 -82.4091 223° Southwest  Level Estimated
05:02PM 22.9891 -82.4091 223° Southwest  Level Estimated
05:03PM 22.9891 -82.4091 223° Southwest  Level Estimated
05:04PM 22.9891 -82.4091 223° Southwest  Level Estimated
05:05PM 22.9891 -82.4091 223° Southwest  Level Estimated
05:06PM 22.9891 -82.4091 223° Southwest  Level Estimated
05:07PM 22.9891 -82.4091 223° Southwest  Level Estimated
05:08PM 22.9891 -82.4091 223° Southwest  Level Estimated
05:09PM 22.9891 -82.4091 223° Southwest  Level Estimated
05:10PM 22.9891 -82.4091 223° Southwest  Level Estimated